createdAt,value
2019-02-02T00:01:17.134Z,18.53
2019-02-02T00:04:05.633Z,16.33
2019-02-02T00:06:53.588Z,17.03
2019-02-02T00:09:41.882Z,17.07
2019-02-02T00:12:29.972Z,17.73
2019-02-02T00:15:18.446Z,16.50
2019-02-02T00:18:06.832Z,17.17
2019-02-02T00:20:54.685Z,17.67
2019-02-02T00:23:42.623Z,17.17
2019-02-02T00:26:30.673Z,17.23
2019-02-02T00:29:18.639Z,18.50
2019-02-02T00:32:06.252Z,18.00
2019-02-02T00:34:54.372Z,15.53
2019-02-02T00:37:42.440Z,17.17
2019-02-02T00:40:29.957Z,17.27
2019-02-02T00:43:17.886Z,16.83
2019-02-02T00:46:06.310Z,15.13
2019-02-02T00:48:54.178Z,14.83
2019-02-02T00:51:42.430Z,14.80
2019-02-02T00:54:30.264Z,13.93
2019-02-02T00:57:18.151Z,13.77
2019-02-02T01:00:08.387Z,14.97
2019-02-02T01:02:56.089Z,13.60
2019-02-02T01:05:44.362Z,13.50
2019-02-02T01:08:32.594Z,14.33
2019-02-02T01:11:20.747Z,13.77
2019-02-02T01:14:09.455Z,14.47
2019-02-02T01:16:57.528Z,13.47
2019-02-02T01:19:45.638Z,14.70
2019-02-02T01:22:33.368Z,14.03
2019-02-02T01:25:21.160Z,16.07
2019-02-02T01:28:09.136Z,13.67
2019-02-02T01:30:56.869Z,14.70
2019-02-02T01:33:44.724Z,13.70
2019-02-02T01:36:33.129Z,15.13
2019-02-02T01:39:21.037Z,15.53
2019-02-02T01:42:09.291Z,15.47
2019-02-02T01:44:57.351Z,13.93
2019-02-02T01:47:45.073Z,14.03
2019-02-02T01:50:33.030Z,14.67
2019-02-02T01:53:21.048Z,14.00
2019-02-02T01:56:09.025Z,14.57
2019-02-02T01:58:57.109Z,14.83
2019-02-02T02:01:45.001Z,15.53
2019-02-02T02:04:32.780Z,16.03
2019-02-02T02:07:20.927Z,14.90
2019-02-02T02:10:10.851Z,17.17
2019-02-02T02:12:59.000Z,17.80
2019-02-02T02:15:46.877Z,14.67
2019-02-02T02:18:35.089Z,16.33
2019-02-02T02:21:22.915Z,18.83
2019-02-02T02:24:10.854Z,18.27
2019-02-02T02:26:59.058Z,16.37
2019-02-02T02:29:46.890Z,15.17
2019-02-02T02:32:34.812Z,17.77
2019-02-02T02:35:23.035Z,18.30
2019-02-02T02:38:10.688Z,18.20
2019-02-02T02:40:58.623Z,17.90
2019-02-02T02:43:46.239Z,18.33
2019-02-02T02:46:34.557Z,18.63
2019-02-02T02:49:22.152Z,21.13
2019-02-02T02:52:10.288Z,21.87
2019-02-02T02:54:58.448Z,23.90
2019-02-02T02:57:46.826Z,25.20
2019-02-02T03:00:34.722Z,23.63
2019-02-02T03:03:22.557Z,23.83
2019-02-02T03:06:10.504Z,24.80
2019-02-02T03:08:58.928Z,25.53
2019-02-02T03:11:46.740Z,26.13
2019-02-02T03:14:34.834Z,22.87
2019-02-02T03:17:22.792Z,25.40
2019-02-02T03:20:11.929Z,22.30
2019-02-02T03:22:59.920Z,22.93
2019-02-02T03:25:47.747Z,22.83
2019-02-02T03:28:35.691Z,22.80
2019-02-02T03:31:24.092Z,23.67
2019-02-02T03:34:11.956Z,22.97
2019-02-02T03:37:00.052Z,20.33
2019-02-02T03:39:48.012Z,20.57
2019-02-02T03:42:36.200Z,21.40
2019-02-02T03:45:26.049Z,21.43
2019-02-02T03:48:14.180Z,19.77
2019-02-02T03:51:02.394Z,22.17
2019-02-02T03:53:50.477Z,21.57
2019-02-02T03:56:38.862Z,20.50
2019-02-02T03:59:26.671Z,21.57
2019-02-02T04:02:14.755Z,24.63
2019-02-02T04:05:02.401Z,23.00
2019-02-02T04:07:50.465Z,26.40
2019-02-02T04:10:38.426Z,23.40
2019-02-02T04:13:26.323Z,21.90
2019-02-02T04:16:14.499Z,24.50
2019-02-02T04:19:02.616Z,26.90
2019-02-02T04:21:50.124Z,26.00
2019-02-02T04:24:38.303Z,23.97
2019-02-02T04:27:26.586Z,24.77
2019-02-02T04:30:20.343Z,24.30
2019-02-02T04:33:08.371Z,25.50
2019-02-02T04:35:55.871Z,24.63
2019-02-02T04:38:43.963Z,22.90
2019-02-02T04:41:31.637Z,25.30
2019-02-02T04:44:19.941Z,24.40
2019-02-02T04:47:08.103Z,25.87
2019-02-02T04:49:55.955Z,24.07
2019-02-02T04:52:44.191Z,24.60
2019-02-02T04:55:32.024Z,27.20
2019-02-02T04:58:20.046Z,24.60
2019-02-02T05:01:07.939Z,23.83
2019-02-02T05:03:55.598Z,22.40
2019-02-02T05:06:43.378Z,22.30
2019-02-02T05:09:31.309Z,23.47
2019-02-02T05:12:19.169Z,24.83
2019-02-02T05:15:07.505Z,24.10
2019-02-02T05:17:55.296Z,27.87
2019-02-02T05:20:43.250Z,24.87
2019-02-02T05:23:31.239Z,24.43
2019-02-02T05:26:19.394Z,25.40
2019-02-02T05:29:07.184Z,27.43
2019-02-02T05:31:55.010Z,25.03
2019-02-02T05:34:42.895Z,26.00
2019-02-02T05:37:30.852Z,28.17
2019-02-02T05:40:19.564Z,26.93
2019-02-02T05:43:07.839Z,27.13
2019-02-02T05:45:55.870Z,30.07
2019-02-02T05:48:44.187Z,29.77
2019-02-02T05:51:31.841Z,27.07
2019-02-02T05:54:20.187Z,27.83
2019-02-02T05:57:08.072Z,25.20
2019-02-02T05:59:55.994Z,28.33
2019-02-02T06:02:43.568Z,26.37
2019-02-02T06:05:31.576Z,25.47
2019-02-02T06:08:19.648Z,20.67
2019-02-02T06:11:07.258Z,23.50
2019-02-02T06:13:54.901Z,25.60
2019-02-02T06:16:43.239Z,24.03
2019-02-02T06:19:31.187Z,25.27
2019-02-02T06:22:19.028Z,24.57
2019-02-02T06:25:08.408Z,23.30
2019-02-02T06:27:56.473Z,24.63
2019-02-02T06:30:44.290Z,24.87
2019-02-02T06:33:31.787Z,25.00
2019-02-02T06:36:19.935Z,23.77
2019-02-02T06:39:08.690Z,24.47
2019-02-02T06:41:56.306Z,25.93
2019-02-02T06:44:44.188Z,21.70
2019-02-02T06:47:32.082Z,24.47
2019-02-02T06:50:19.861Z,22.97
2019-02-02T06:53:07.519Z,26.33
2019-02-02T06:55:55.029Z,23.93
2019-02-02T06:58:42.971Z,25.53
2019-02-02T07:01:30.975Z,26.40
2019-02-02T07:04:18.978Z,24.60
2019-02-02T07:07:06.985Z,26.03
2019-02-02T07:09:54.945Z,24.67
2019-02-02T07:12:42.958Z,24.57
2019-02-02T07:15:30.806Z,23.70
2019-02-02T07:18:18.605Z,25.67
2019-02-02T07:21:06.804Z,23.47
2019-02-02T07:23:54.555Z,27.07
2019-02-02T07:26:42.340Z,25.93
2019-02-02T07:29:30.351Z,25.43
2019-02-02T07:32:18.302Z,25.90
2019-02-02T07:35:08.021Z,27.83
2019-02-02T07:37:55.898Z,24.33
2019-02-02T07:40:43.646Z,24.43
2019-02-02T07:43:31.525Z,24.83
2019-02-02T07:46:21.389Z,25.30
2019-02-02T07:49:08.680Z,24.90
2019-02-02T07:51:56.250Z,24.40
2019-02-02T07:54:44.168Z,25.70
2019-02-02T07:57:32.181Z,24.80
2019-02-02T08:00:25.713Z,22.07
2019-02-02T08:03:13.880Z,24.90
2019-02-02T08:06:01.947Z,25.13
2019-02-02T08:08:50.187Z,24.17
2019-02-02T08:11:38.528Z,26.93
2019-02-02T08:14:26.410Z,27.47
2019-02-02T08:17:14.574Z,22.90
2019-02-02T08:20:02.427Z,21.70
2019-02-02T08:22:50.651Z,21.53
2019-02-02T08:25:39.189Z,23.73
2019-02-02T08:28:27.244Z,25.37
2019-02-02T08:31:15.346Z,23.53
2019-02-02T08:34:03.620Z,26.07
2019-02-02T08:36:51.679Z,27.63
2019-02-02T08:39:39.491Z,26.53
2019-02-02T08:42:27.187Z,25.47
2019-02-02T08:45:15.405Z,27.03
2019-02-02T08:48:03.470Z,27.43
2019-02-02T08:50:51.609Z,27.50
2019-02-02T08:53:39.496Z,29.20
2019-02-02T08:56:27.788Z,26.90
2019-02-02T08:59:15.795Z,23.50
2019-02-02T09:02:03.795Z,26.67
2019-02-02T09:04:52.007Z,25.10
2019-02-02T09:07:39.990Z,29.53
2019-02-02T09:10:28.905Z,31.43
2019-02-02T09:13:17.233Z,29.90
2019-02-02T09:16:05.303Z,30.67
2019-02-02T09:18:53.159Z,27.67
2019-02-02T09:21:41.133Z,27.87
2019-02-02T09:24:29.173Z,29.83
2019-02-02T09:27:17.434Z,28.43
2019-02-02T09:30:09.859Z,29.03
2019-02-02T09:32:57.973Z,26.67
2019-02-02T09:35:45.819Z,30.70
2019-02-02T09:38:34.242Z,30.07
2019-02-02T09:41:22.177Z,26.77
2019-02-02T09:44:09.748Z,27.27
2019-02-02T09:46:57.973Z,29.03
2019-02-02T09:49:45.976Z,30.43
2019-02-02T09:52:34.139Z,26.30
2019-02-02T09:55:23.385Z,25.17
2019-02-02T09:58:12.386Z,26.27
2019-02-02T10:01:00.192Z,27.90
2019-02-02T10:03:48.542Z,24.33
2019-02-02T10:06:36.551Z,23.33
2019-02-02T10:09:24.534Z,25.80
2019-02-02T10:12:12.529Z,24.67
2019-02-02T10:15:00.639Z,24.23
2019-02-02T10:17:49.816Z,27.43
2019-02-02T10:20:37.917Z,23.03
2019-02-02T10:23:25.979Z,24.80
2019-02-02T10:26:13.614Z,26.43
2019-02-02T10:29:01.729Z,26.70
2019-02-02T10:31:49.436Z,26.97
2019-02-02T10:34:37.109Z,26.90
2019-02-02T10:37:25.108Z,24.57
2019-02-02T10:40:13.656Z,26.97
2019-02-02T10:43:01.784Z,27.43
2019-02-02T10:45:50.813Z,28.20
2019-02-02T10:48:38.648Z,26.40
2019-02-02T10:51:26.973Z,27.60
2019-02-02T10:54:15.256Z,25.10
2019-02-02T10:57:03.223Z,25.00
2019-02-02T10:59:51.195Z,28.43
2019-02-02T11:02:39.411Z,24.13
2019-02-02T11:05:28.020Z,22.17
2019-02-02T11:08:15.944Z,24.43
2019-02-02T11:11:04.107Z,23.43
2019-02-02T11:13:52.305Z,26.13
2019-02-02T11:16:40.437Z,28.60
2019-02-02T11:19:28.363Z,27.33
2019-02-02T11:22:16.500Z,27.47
2019-02-02T11:25:06.554Z,27.40
2019-02-02T11:27:54.856Z,25.60
2019-02-02T11:30:42.772Z,27.27
2019-02-02T11:33:30.590Z,30.20
2019-02-02T11:36:18.749Z,25.57
2019-02-02T11:39:07.837Z,27.43
2019-02-02T11:41:55.684Z,25.47
2019-02-02T11:44:43.338Z,26.70
2019-02-02T11:47:31.005Z,30.00
2019-02-02T11:50:19.300Z,28.90
2019-02-02T11:53:07.214Z,26.60
2019-02-02T11:55:55.303Z,26.20
2019-02-02T11:58:43.394Z,28.93
2019-02-02T12:01:31.608Z,25.37
2019-02-02T12:04:19.641Z,26.43
2019-02-02T12:07:07.677Z,27.53
2019-02-02T12:09:55.525Z,25.07
2019-02-02T12:12:43.875Z,24.27
2019-02-02T12:15:31.764Z,23.07
2019-02-02T12:18:19.434Z,22.27
2019-02-02T12:21:07.394Z,23.63
2019-02-02T12:23:55.643Z,24.87
2019-02-02T12:26:43.546Z,24.90
2019-02-02T12:29:31.833Z,23.77
2019-02-02T12:32:26.911Z,24.83
2019-02-02T12:35:11.799Z,24.27
2019-02-02T12:37:59.662Z,24.07
2019-02-02T12:40:47.502Z,22.10
2019-02-02T12:43:35.867Z,21.83
2019-02-02T12:46:23.707Z,24.33
2019-02-02T12:49:11.917Z,24.13
2019-02-02T12:51:59.926Z,24.00
2019-02-02T12:54:47.755Z,24.63
2019-02-02T12:57:35.842Z,26.87
2019-02-02T13:00:23.724Z,24.07
2019-02-02T13:03:11.996Z,24.80
2019-02-02T13:05:59.849Z,23.67
2019-02-02T13:08:47.895Z,24.73
2019-02-02T13:11:36.321Z,22.97
2019-02-02T13:14:24.524Z,26.90
2019-02-02T13:17:12.619Z,25.10
2019-02-02T13:20:00.812Z,25.27
2019-02-02T13:22:49.048Z,24.90
2019-02-02T13:25:37.230Z,26.50
2019-02-02T13:28:25.494Z,26.97
2019-02-02T13:31:13.365Z,25.97
2019-02-02T13:34:01.611Z,24.70
2019-02-02T13:36:49.680Z,28.43
2019-02-02T13:39:37.715Z,26.30
2019-02-02T13:42:25.457Z,27.17
2019-02-02T13:45:13.659Z,25.83
2019-02-02T13:48:02.272Z,25.50
2019-02-02T13:50:50.447Z,25.10
2019-02-02T13:53:38.421Z,28.33
2019-02-02T13:56:26.271Z,29.40
2019-02-02T13:59:14.279Z,25.33
2019-02-02T14:02:01.932Z,24.93
2019-02-02T14:04:49.536Z,20.90
2019-02-02T14:07:37.715Z,23.87
2019-02-02T14:10:27.041Z,23.23
2019-02-02T14:13:16.953Z,22.93
2019-02-02T14:16:04.730Z,22.90
2019-02-02T14:18:52.627Z,25.10
2019-02-02T14:21:40.734Z,25.57
2019-02-02T14:24:28.733Z,24.23
2019-02-02T14:27:16.839Z,24.77
2019-02-02T14:30:08.150Z,23.17
2019-02-02T14:32:56.555Z,26.10
2019-02-02T14:35:44.654Z,21.50
2019-02-02T14:38:32.454Z,25.97
2019-02-02T14:41:20.288Z,22.97
2019-02-02T14:44:08.375Z,24.30
2019-02-02T14:46:56.426Z,23.97
2019-02-02T14:49:44.880Z,23.17
2019-02-02T14:52:32.966Z,22.50
2019-02-02T14:55:25.927Z,23.03
2019-02-02T14:58:14.215Z,21.80
2019-02-02T15:01:02.694Z,21.33
2019-02-02T15:03:50.559Z,20.63
2019-02-02T15:06:38.593Z,21.23
2019-02-02T15:09:26.706Z,19.97
2019-02-02T15:12:14.383Z,19.23
2019-02-02T15:15:02.369Z,21.77
2019-02-02T15:17:50.473Z,19.97
2019-02-02T15:20:38.658Z,18.23
2019-02-02T15:23:26.361Z,19.23
2019-02-02T15:26:14.272Z,17.67
2019-02-02T15:29:02.218Z,17.07
2019-02-02T15:31:50.146Z,14.03
2019-02-02T15:34:38.365Z,18.03
2019-02-02T15:37:26.349Z,17.23
2019-02-02T15:40:16.183Z,18.00
2019-02-02T15:43:04.207Z,16.07
2019-02-02T15:45:52.518Z,16.23
2019-02-02T15:48:42.563Z,15.97
2019-02-02T15:51:40.037Z,16.70
2019-02-02T15:54:19.587Z,14.47
2019-02-02T15:57:07.198Z,15.80
2019-02-02T15:59:55.453Z,16.33
2019-02-02T16:02:43.275Z,16.43
2019-02-02T16:05:31.539Z,16.80
2019-02-02T16:08:19.632Z,16.40
2019-02-02T16:11:07.805Z,17.47
2019-02-02T16:13:55.963Z,17.63
2019-02-02T16:16:43.901Z,19.37
2019-02-02T16:19:31.676Z,18.97
2019-02-02T16:22:19.898Z,17.13
2019-02-02T16:25:08.952Z,16.83
2019-02-02T16:27:56.810Z,16.33
2019-02-02T16:30:44.820Z,15.60
2019-02-02T16:33:32.760Z,16.10
2019-02-02T16:36:21.079Z,18.27
2019-02-02T16:39:09.762Z,17.57
2019-02-02T16:41:57.733Z,17.37
2019-02-02T16:44:45.496Z,21.57
2019-02-02T16:47:33.721Z,19.70
2019-02-02T16:50:22.192Z,20.50
2019-02-02T16:53:10.350Z,21.87
2019-02-02T16:55:58.494Z,21.73
2019-02-02T16:58:46.356Z,18.67
2019-02-02T17:01:34.401Z,20.33
2019-02-02T17:04:22.613Z,21.23
2019-02-02T17:07:10.987Z,21.17
2019-02-02T17:09:58.784Z,19.87
2019-02-02T17:12:46.985Z,21.17
2019-02-02T17:15:35.270Z,19.03
2019-02-02T17:18:23.257Z,19.27
2019-02-02T17:21:10.895Z,20.03
2019-02-02T17:23:59.073Z,20.27
2019-02-02T17:26:47.308Z,20.87
2019-02-02T17:29:35.498Z,22.77
2019-02-02T17:32:23.713Z,20.20
2019-02-02T17:35:12.404Z,22.77
2019-02-02T17:38:00.057Z,24.93
2019-02-02T17:40:47.920Z,24.00
2019-02-02T17:43:35.867Z,25.27
2019-02-02T17:46:24.011Z,21.07
2019-02-02T17:49:12.379Z,22.30
2019-02-02T17:52:00.484Z,21.23
2019-02-02T17:54:48.294Z,19.90
2019-02-02T17:57:36.650Z,24.20
2019-02-02T18:00:35.050Z,21.30
2019-02-02T18:03:23.128Z,20.93
2019-02-02T18:06:11.134Z,22.27
2019-02-02T18:08:59.329Z,21.57
2019-02-02T18:11:47.036Z,21.90
2019-02-02T18:14:34.714Z,22.90
2019-02-02T18:17:22.403Z,22.67
2019-02-02T18:20:12.371Z,21.87
2019-02-02T18:23:00.195Z,25.13
2019-02-02T18:25:48.438Z,22.63
2019-02-02T18:28:36.692Z,22.50
2019-02-02T18:31:24.644Z,23.83
2019-02-02T18:34:13.093Z,23.20
2019-02-02T18:37:00.815Z,26.00
2019-02-02T18:39:48.748Z,23.60
2019-02-02T18:42:36.549Z,23.63
2019-02-02T18:45:26.097Z,24.50
2019-02-02T18:48:14.164Z,25.47
2019-02-02T18:51:02.326Z,25.57
2019-02-02T18:53:50.507Z,24.63
2019-02-02T18:56:38.339Z,31.53
2019-02-02T18:59:26.691Z,28.57
2019-02-02T19:02:14.426Z,23.90
2019-02-02T19:05:04.149Z,22.90
2019-02-02T19:07:51.812Z,23.27
2019-02-02T19:10:40.226Z,20.97
2019-02-02T19:13:28.106Z,22.00
2019-02-02T19:16:15.940Z,21.50
2019-02-02T19:19:04.204Z,22.57
2019-02-02T19:21:52.725Z,21.03
2019-02-02T19:24:40.950Z,21.43
2019-02-02T19:27:29.119Z,22.83
2019-02-02T19:30:22.942Z,22.87
2019-02-02T19:33:10.779Z,23.53
2019-02-02T19:35:58.822Z,21.60
2019-02-02T19:38:46.932Z,21.60
2019-02-02T19:41:35.553Z,25.03
2019-02-02T19:44:23.759Z,22.03
2019-02-02T19:47:16.068Z,21.57
2019-02-02T19:50:01.316Z,22.13
2019-02-02T19:52:49.539Z,21.60
2019-02-02T19:55:37.564Z,22.13
2019-02-02T19:58:25.561Z,22.07
2019-02-02T20:01:13.725Z,22.33
2019-02-02T20:04:01.805Z,24.03
2019-02-02T20:06:50.016Z,23.27
2019-02-02T20:09:37.582Z,22.53
2019-02-02T20:12:25.182Z,23.73
2019-02-02T20:15:15.492Z,24.83
2019-02-02T20:18:09.789Z,24.23
2019-02-02T20:20:52.615Z,23.23
2019-02-02T20:23:40.578Z,22.63
2019-02-02T20:26:28.882Z,21.70
2019-02-02T20:29:16.707Z,20.30
2019-02-02T20:32:04.530Z,23.20
2019-02-02T20:34:52.635Z,20.63
2019-02-02T20:37:40.611Z,21.23
2019-02-02T20:40:28.531Z,20.07
2019-02-02T20:43:16.223Z,21.10
2019-02-02T20:46:04.417Z,23.00
2019-02-02T20:48:52.407Z,22.83
2019-02-02T20:51:40.508Z,23.70
2019-02-02T20:54:28.351Z,22.17
2019-02-02T20:57:16.126Z,21.50
2019-02-02T21:00:04.820Z,20.43
2019-02-02T21:02:52.947Z,20.87
2019-02-02T21:05:51.549Z,22.07
2019-02-02T21:08:30.257Z,22.90
2019-02-02T21:11:17.749Z,19.83
2019-02-02T21:14:06.049Z,20.87
2019-02-02T21:16:54.403Z,20.10
2019-02-02T21:19:43.428Z,21.37
2019-02-02T21:22:31.021Z,23.47
2019-02-02T21:25:19.214Z,20.50
2019-02-02T21:28:08.278Z,21.07
2019-02-02T21:30:56.466Z,20.90
2019-02-02T21:33:45.137Z,22.57
2019-02-02T21:36:32.918Z,21.77
2019-02-02T21:39:21.483Z,21.07
2019-02-02T21:42:09.373Z,21.07
2019-02-02T21:44:57.553Z,21.37
2019-02-02T21:47:45.895Z,21.33
2019-02-02T21:50:33.850Z,21.57
2019-02-02T21:53:21.907Z,19.73
2019-02-02T21:56:10.234Z,19.07
2019-02-02T21:58:58.559Z,18.73
2019-02-02T22:01:46.525Z,18.67
2019-02-02T22:04:34.870Z,20.43
2019-02-02T22:07:22.645Z,19.33
2019-02-02T22:10:11.131Z,19.30
2019-02-02T22:12:59.450Z,20.70
2019-02-02T22:15:47.442Z,17.53
2019-02-02T22:18:35.348Z,17.47
2019-02-02T22:21:23.283Z,17.17
2019-02-02T22:24:11.361Z,18.00
2019-02-02T22:27:00.066Z,18.57
2019-02-02T22:29:48.220Z,19.03
2019-02-02T22:32:36.321Z,19.73
2019-02-02T22:35:24.221Z,18.70
2019-02-02T22:38:12.006Z,19.47
2019-02-02T22:41:00.360Z,19.07
2019-02-02T22:43:48.384Z,18.70
2019-02-02T22:46:36.264Z,17.57
2019-02-02T22:49:24.365Z,18.93
2019-02-02T22:52:12.109Z,17.37
2019-02-02T22:55:00.326Z,17.40
2019-02-02T22:57:48.733Z,19.73
2019-02-02T23:01:06.853Z,18.47
2019-02-02T23:04:47.421Z,17.63
2019-02-02T23:08:03.614Z,18.17
2019-02-02T23:11:36.276Z,18.90
2019-02-02T23:15:01.791Z,18.53
2019-02-02T23:17:49.868Z,17.80
2019-02-02T23:20:37.915Z,19.23
2019-02-02T23:23:25.835Z,19.27
2019-02-02T23:26:13.994Z,17.90
2019-02-02T23:29:01.935Z,19.67
2019-02-02T23:31:50.915Z,19.23
2019-02-02T23:34:38.987Z,20.57
2019-02-02T23:37:27.391Z,18.10
2019-02-02T23:40:15.562Z,19.03
2019-02-02T23:43:03.985Z,18.77
2019-02-02T23:45:52.284Z,18.90
2019-02-02T23:48:40.563Z,21.20
2019-02-02T23:51:28.445Z,19.97
2019-02-02T23:54:16.106Z,17.53
2019-02-02T23:57:04.079Z,19.47
2019-02-02T23:59:52.596Z,19.53
